sensor_id;sensor_type;location;lat;lon;timestamp;P1;durP1;ratioP1;P2;durP2;ratioP2
23682;SDS011;24897;53.514;10.482;2023-05-20T00:01:01;19.70;;;18.07;;
23682;SDS011;24897;53.514;10.482;2023-05-20T00:03:45;19.13;;;17.63;;
23682;SDS011;24897;53.514;10.482;2023-05-20T00:06:29;19.67;;;17.97;;
23682;SDS011;24897;53.514;10.482;2023-05-20T00:09:14;19.10;;;17.47;;
23682;SDS011;24897;53.514;10.482;2023-05-20T00:12:00;19.03;;;17.53;;
23682;SDS011;24897;53.514;10.482;2023-05-20T00:14:44;19.63;;;17.90;;
23682;SDS011;24897;53.514;10.482;2023-05-20T00:17:28;19.90;;;18.20;;
23682;SDS011;24897;53.514;10.482;2023-05-20T00:20:13;19.73;;;18.03;;
23682;SDS011;24897;53.514;10.482;2023-05-20T00:22:58;20.40;;;18.70;;
23682;SDS011;24897;53.514;10.482;2023-05-20T00:25:42;21.07;;;19.27;;
23682;SDS011;24897;53.514;10.482;2023-05-20T00:28:26;20.43;;;18.80;;
23682;SDS011;24897;53.514;10.482;2023-05-20T00:31:13;20.90;;;19.10;;
23682;SDS011;24897;53.514;10.482;2023-05-20T00:33:58;21.77;;;19.97;;
23682;SDS011;24897;53.514;10.482;2023-05-20T00:36:42;20.90;;;19.20;;
23682;SDS011;24897;53.514;10.482;2023-05-20T00:39:27;20.90;;;19.20;;
23682;SDS011;24897;53.514;10.482;2023-05-20T00:42:18;21.57;;;19.83;;
23682;SDS011;24897;53.514;10.482;2023-05-20T00:45:06;21.20;;;19.40;;
23682;SDS011;24897;53.514;10.482;2023-05-20T00:47:51;20.70;;;18.90;;
23682;SDS011;24897;53.514;10.482;2023-05-20T00:50:36;21.00;;;19.30;;
23682;SDS011;24897;53.514;10.482;2023-05-20T00:53:20;21.30;;;19.60;;
23682;SDS011;24897;53.514;10.482;2023-05-20T00:56:05;21.53;;;19.63;;
23682;SDS011;24897;53.514;10.482;2023-05-20T00:58:51;21.23;;;19.53;;
23682;SDS011;24897;53.514;10.482;2023-05-20T01:01:35;20.93;;;19.20;;
23682;SDS011;24897;53.514;10.482;2023-05-20T01:04:19;21.83;;;19.97;;
23682;SDS011;24897;53.514;10.482;2023-05-20T01:07:04;21.40;;;19.70;;
23682;SDS011;24897;53.514;10.482;2023-05-20T01:09:50;22.17;;;20.37;;
23682;SDS011;24897;53.514;10.482;2023-05-20T01:12:42;22.37;;;20.40;;
23682;SDS011;24897;53.514;10.482;2023-05-20T01:15:33;22.67;;;20.80;;
23682;SDS011;24897;53.514;10.482;2023-05-20T01:18:18;22.87;;;20.97;;
23682;SDS011;24897;53.514;10.482;2023-05-20T01:21:03;23.27;;;21.17;;
23682;SDS011;24897;53.514;10.482;2023-05-20T01:23:51;21.53;;;19.73;;
23682;SDS011;24897;53.514;10.482;2023-05-20T01:26:36;21.33;;;19.53;;
23682;SDS011;24897;53.514;10.482;2023-05-20T01:29:21;21.13;;;19.43;;
23682;SDS011;24897;53.514;10.482;2023-05-20T01:32:14;22.00;;;20.10;;
23682;SDS011;24897;53.514;10.482;2023-05-20T01:35:15;21.80;;;20.03;;
23682;SDS011;24897;53.514;10.482;2023-05-20T01:38:00;21.70;;;19.90;;
23682;SDS011;24897;53.514;10.482;2023-05-20T01:40:47;22.13;;;20.13;;
23682;SDS011;24897;53.514;10.482;2023-05-20T01:43:32;22.03;;;20.23;;
23682;SDS011;24897;53.514;10.482;2023-05-20T01:46:17;22.13;;;20.20;;
23682;SDS011;24897;53.514;10.482;2023-05-20T01:49:01;21.73;;;19.73;;
23682;SDS011;24897;53.514;10.482;2023-05-20T01:51:45;21.87;;;19.97;;
23682;SDS011;24897;53.514;10.482;2023-05-20T01:54:29;22.20;;;20.30;;
23682;SDS011;24897;53.514;10.482;2023-05-20T01:57:14;21.87;;;20.07;;
23682;SDS011;24897;53.514;10.482;2023-05-20T01:59:58;22.17;;;20.30;;
23682;SDS011;24897;53.514;10.482;2023-05-20T02:02:42;22.20;;;20.40;;
23682;SDS011;24897;53.514;10.482;2023-05-20T02:05:26;22.70;;;20.80;;
23682;SDS011;24897;53.514;10.482;2023-05-20T02:08:10;23.07;;;21.13;;
23682;SDS011;24897;53.514;10.482;2023-05-20T02:10:54;23.63;;;21.73;;
23682;SDS011;24897;53.514;10.482;2023-05-20T02:13:38;23.53;;;21.60;;
23682;SDS011;24897;53.514;10.482;2023-05-20T02:16:23;23.07;;;21.10;;
23682;SDS011;24897;53.514;10.482;2023-05-20T02:19:09;22.67;;;20.87;;
23682;SDS011;24897;53.514;10.482;2023-05-20T02:21:55;23.27;;;21.27;;
23682;SDS011;24897;53.514;10.482;2023-05-20T02:24:39;22.97;;;21.00;;
23682;SDS011;24897;53.514;10.482;2023-05-20T02:27:25;22.60;;;20.80;;
23682;SDS011;24897;53.514;10.482;2023-05-20T02:30:10;22.50;;;20.70;;
23682;SDS011;24897;53.514;10.482;2023-05-20T02:32:54;22.93;;;20.90;;
23682;SDS011;24897;53.514;10.482;2023-05-20T02:35:40;22.80;;;20.70;;
23682;SDS011;24897;53.514;10.482;2023-05-20T02:38:24;23.27;;;21.37;;
23682;SDS011;24897;53.514;10.482;2023-05-20T02:41:09;23.47;;;21.47;;
23682;SDS011;24897;53.514;10.482;2023-05-20T02:43:53;24.97;;;22.57;;
23682;SDS011;24897;53.514;10.482;2023-05-20T02:46:37;23.67;;;21.73;;
23682;SDS011;24897;53.514;10.482;2023-05-20T02:49:22;25.67;;;23.47;;
23682;SDS011;24897;53.514;10.482;2023-05-20T02:52:06;25.27;;;23.17;;
23682;SDS011;24897;53.514;10.482;2023-05-20T02:54:51;24.73;;;22.63;;
23682;SDS011;24897;53.514;10.482;2023-05-20T02:57:35;25.60;;;23.40;;
23682;SDS011;24897;53.514;10.482;2023-05-20T03:00:21;25.47;;;23.33;;
23682;SDS011;24897;53.514;10.482;2023-05-20T03:03:06;25.20;;;23.10;;
23682;SDS011;24897;53.514;10.482;2023-05-20T03:05:50;25.63;;;23.60;;
23682;SDS011;24897;53.514;10.482;2023-05-20T03:08:34;26.83;;;24.33;;
23682;SDS011;24897;53.514;10.482;2023-05-20T03:11:19;28.23;;;25.63;;
23682;SDS011;24897;53.514;10.482;2023-05-20T03:14:04;27.80;;;25.50;;
23682;SDS011;24897;53.514;10.482;2023-05-20T03:16:48;28.57;;;26.17;;
23682;SDS011;24897;53.514;10.482;2023-05-20T03:19:32;28.83;;;26.33;;
23682;SDS011;24897;53.514;10.482;2023-05-20T03:22:16;29.60;;;27.20;;
23682;SDS011;24897;53.514;10.482;2023-05-20T03:25:00;30.70;;;28.10;;
23682;SDS011;24897;53.514;10.482;2023-05-20T03:27:44;29.97;;;27.37;;
23682;SDS011;24897;53.514;10.482;2023-05-20T03:30:28;30.43;;;27.93;;
23682;SDS011;24897;53.514;10.482;2023-05-20T03:33:12;30.20;;;27.80;;
23682;SDS011;24897;53.514;10.482;2023-05-20T03:35:57;30.33;;;27.77;;
23682;SDS011;24897;53.514;10.482;2023-05-20T03:38:41;31.03;;;28.30;;
23682;SDS011;24897;53.514;10.482;2023-05-20T03:41:25;29.27;;;26.97;;
23682;SDS011;24897;53.514;10.482;2023-05-20T03:44:10;27.47;;;25.27;;
23682;SDS011;24897;53.514;10.482;2023-05-20T03:46:54;25.20;;;23.27;;
23682;SDS011;24897;53.514;10.482;2023-05-20T03:49:38;24.03;;;22.17;;
23682;SDS011;24897;53.514;10.482;2023-05-20T03:52:23;22.30;;;20.50;;
23682;SDS011;24897;53.514;10.482;2023-05-20T03:55:08;20.47;;;18.93;;
23682;SDS011;24897;53.514;10.482;2023-05-20T03:57:52;19.77;;;18.07;;
23682;SDS011;24897;53.514;10.482;2023-05-20T04:00:37;18.90;;;17.30;;
23682;SDS011;24897;53.514;10.482;2023-05-20T04:03:22;19.17;;;17.57;;
23682;SDS011;24897;53.514;10.482;2023-05-20T04:06:06;19.57;;;17.80;;
23682;SDS011;24897;53.514;10.482;2023-05-20T04:08:50;19.60;;;18.00;;
23682;SDS011;24897;53.514;10.482;2023-05-20T04:11:35;20.43;;;18.73;;
23682;SDS011;24897;53.514;10.482;2023-05-20T04:14:19;20.20;;;18.53;;
23682;SDS011;24897;53.514;10.482;2023-05-20T04:17:04;20.20;;;18.50;;
23682;SDS011;24897;53.514;10.482;2023-05-20T04:19:49;20.20;;;18.60;;
23682;SDS011;24897;53.514;10.482;2023-05-20T04:22:33;19.40;;;17.80;;
23682;SDS011;24897;53.514;10.482;2023-05-20T04:25:17;20.47;;;18.60;;
23682;SDS011;24897;53.514;10.482;2023-05-20T04:28:02;20.47;;;18.73;;
23682;SDS011;24897;53.514;10.482;2023-05-20T04:30:47;21.33;;;19.53;;
23682;SDS011;24897;53.514;10.482;2023-05-20T04:33:31;21.50;;;19.70;;
23682;SDS011;24897;53.514;10.482;2023-05-20T04:36:15;23.00;;;21.10;;
23682;SDS011;24897;53.514;10.482;2023-05-20T04:39:00;22.73;;;20.70;;
23682;SDS011;24897;53.514;10.482;2023-05-20T04:41:46;21.60;;;19.80;;
23682;SDS011;24897;53.514;10.482;2023-05-20T04:44:31;20.23;;;18.53;;
23682;SDS011;24897;53.514;10.482;2023-05-20T04:47:15;19.43;;;17.90;;
23682;SDS011;24897;53.514;10.482;2023-05-20T04:50:00;19.60;;;18.10;;
23682;SDS011;24897;53.514;10.482;2023-05-20T04:52:45;19.47;;;17.90;;
23682;SDS011;24897;53.514;10.482;2023-05-20T04:55:29;19.77;;;18.07;;
23682;SDS011;24897;53.514;10.482;2023-05-20T04:58:14;18.77;;;17.07;;
23682;SDS011;24897;53.514;10.482;2023-05-20T05:01:00;18.00;;;16.50;;
23682;SDS011;24897;53.514;10.482;2023-05-20T05:03:45;18.40;;;16.60;;
23682;SDS011;24897;53.514;10.482;2023-05-20T05:06:29;17.87;;;16.33;;
23682;SDS011;24897;53.514;10.482;2023-05-20T05:09:13;18.83;;;17.03;;
23682;SDS011;24897;53.514;10.482;2023-05-20T05:11:58;19.50;;;17.90;;
23682;SDS011;24897;53.514;10.482;2023-05-20T05:14:42;20.17;;;18.57;;
23682;SDS011;24897;53.514;10.482;2023-05-20T05:17:26;20.70;;;19.00;;
23682;SDS011;24897;53.514;10.482;2023-05-20T05:20:10;20.33;;;18.67;;
23682;SDS011;24897;53.514;10.482;2023-05-20T05:22:55;21.43;;;19.47;;
23682;SDS011;24897;53.514;10.482;2023-05-20T05:25:39;21.00;;;19.07;;
23682;SDS011;24897;53.514;10.482;2023-05-20T05:28:23;21.37;;;19.57;;
23682;SDS011;24897;53.514;10.482;2023-05-20T05:31:08;20.30;;;18.60;;
23682;SDS011;24897;53.514;10.482;2023-05-20T05:33:52;19.17;;;17.57;;
23682;SDS011;24897;53.514;10.482;2023-05-20T05:36:37;19.33;;;17.73;;
23682;SDS011;24897;53.514;10.482;2023-05-20T05:39:22;18.97;;;17.30;;
23682;SDS011;24897;53.514;10.482;2023-05-20T05:42:06;19.00;;;17.40;;
23682;SDS011;24897;53.514;10.482;2023-05-20T05:44:51;18.20;;;16.70;;
23682;SDS011;24897;53.514;10.482;2023-05-20T05:47:35;18.33;;;16.70;;
23682;SDS011;24897;53.514;10.482;2023-05-20T05:50:19;17.93;;;16.43;;
23682;SDS011;24897;53.514;10.482;2023-05-20T05:53:03;17.60;;;16.20;;
23682;SDS011;24897;53.514;10.482;2023-05-20T05:55:47;17.40;;;15.80;;
23682;SDS011;24897;53.514;10.482;2023-05-20T05:58:31;15.67;;;14.47;;
23682;SDS011;24897;53.514;10.482;2023-05-20T06:01:16;15.53;;;14.27;;
23682;SDS011;24897;53.514;10.482;2023-05-20T06:04:00;15.70;;;14.40;;
23682;SDS011;24897;53.514;10.482;2023-05-20T06:06:44;15.50;;;14.20;;
23682;SDS011;24897;53.514;10.482;2023-05-20T06:09:30;15.27;;;14.17;;
23682;SDS011;24897;53.514;10.482;2023-05-20T06:12:14;16.17;;;14.77;;
23682;SDS011;24897;53.514;10.482;2023-05-20T06:14:59;15.77;;;14.50;;
23682;SDS011;24897;53.514;10.482;2023-05-20T06:17:44;15.67;;;14.37;;
23682;SDS011;24897;53.514;10.482;2023-05-20T06:20:28;15.60;;;14.30;;
23682;SDS011;24897;53.514;10.482;2023-05-20T06:23:12;15.37;;;14.00;;
23682;SDS011;24897;53.514;10.482;2023-05-20T06:25:57;15.97;;;14.67;;
23682;SDS011;24897;53.514;10.482;2023-05-20T06:28:42;15.00;;;13.80;;
23682;SDS011;24897;53.514;10.482;2023-05-20T06:31:26;15.33;;;13.97;;
23682;SDS011;24897;53.514;10.482;2023-05-20T06:34:10;15.67;;;14.30;;
23682;SDS011;24897;53.514;10.482;2023-05-20T06:36:55;15.60;;;14.30;;
23682;SDS011;24897;53.514;10.482;2023-05-20T06:39:40;15.60;;;14.37;;
23682;SDS011;24897;53.514;10.482;2023-05-20T06:42:24;15.17;;;13.97;;
23682;SDS011;24897;53.514;10.482;2023-05-20T06:45:09;15.33;;;14.13;;
23682;SDS011;24897;53.514;10.482;2023-05-20T06:47:54;15.40;;;14.10;;
23682;SDS011;24897;53.514;10.482;2023-05-20T06:50:38;16.90;;;15.40;;
23682;SDS011;24897;53.514;10.482;2023-05-20T06:53:22;16.50;;;15.10;;
23682;SDS011;24897;53.514;10.482;2023-05-20T06:56:06;16.97;;;15.30;;
23682;SDS011;24897;53.514;10.482;2023-05-20T06:58:50;16.17;;;14.87;;
23682;SDS011;24897;53.514;10.482;2023-05-20T07:01:34;15.53;;;14.17;;
23682;SDS011;24897;53.514;10.482;2023-05-20T07:04:18;15.57;;;14.27;;
23682;SDS011;24897;53.514;10.482;2023-05-20T07:07:02;15.13;;;13.97;;
23682;SDS011;24897;53.514;10.482;2023-05-20T07:09:47;15.57;;;14.37;;
23682;SDS011;24897;53.514;10.482;2023-05-20T07:12:31;15.73;;;14.40;;
23682;SDS011;24897;53.514;10.482;2023-05-20T07:15:15;15.43;;;14.17;;
23682;SDS011;24897;53.514;10.482;2023-05-20T07:18:00;15.03;;;13.93;;
23682;SDS011;24897;53.514;10.482;2023-05-20T07:20:45;15.27;;;13.97;;
23682;SDS011;24897;53.514;10.482;2023-05-20T07:23:29;15.50;;;14.10;;
23682;SDS011;24897;53.514;10.482;2023-05-20T07:26:13;15.10;;;13.80;;
23682;SDS011;24897;53.514;10.482;2023-05-20T07:28:57;15.17;;;13.87;;
23682;SDS011;24897;53.514;10.482;2023-05-20T07:31:42;15.07;;;13.83;;
23682;SDS011;24897;53.514;10.482;2023-05-20T07:34:26;16.27;;;14.87;;
23682;SDS011;24897;53.514;10.482;2023-05-20T07:37:10;14.80;;;13.57;;
23682;SDS011;24897;53.514;10.482;2023-05-20T07:39:55;14.67;;;13.57;;
23682;SDS011;24897;53.514;10.482;2023-05-20T07:42:39;14.90;;;13.70;;
23682;SDS011;24897;53.514;10.482;2023-05-20T07:45:23;15.03;;;13.83;;
23682;SDS011;24897;53.514;10.482;2023-05-20T07:48:08;14.97;;;13.83;;
23682;SDS011;24897;53.514;10.482;2023-05-20T07:50:53;16.30;;;14.80;;
23682;SDS011;24897;53.514;10.482;2023-05-20T07:53:39;15.27;;;13.97;;
23682;SDS011;24897;53.514;10.482;2023-05-20T07:56:24;16.40;;;15.00;;
23682;SDS011;24897;53.514;10.482;2023-05-20T07:59:08;16.20;;;14.90;;
23682;SDS011;24897;53.514;10.482;2023-05-20T08:01:52;16.47;;;15.00;;
23682;SDS011;24897;53.514;10.482;2023-05-20T08:04:36;15.93;;;14.67;;
23682;SDS011;24897;53.514;10.482;2023-05-20T08:07:21;15.67;;;14.40;;
23682;SDS011;24897;53.514;10.482;2023-05-20T08:10:05;16.13;;;14.83;;
23682;SDS011;24897;53.514;10.482;2023-05-20T08:12:50;15.80;;;14.60;;
23682;SDS011;24897;53.514;10.482;2023-05-20T08:15:34;15.73;;;14.30;;
23682;SDS011;24897;53.514;10.482;2023-05-20T08:18:19;15.53;;;14.20;;
23682;SDS011;24897;53.514;10.482;2023-05-20T08:21:06;15.77;;;14.57;;
23682;SDS011;24897;53.514;10.482;2023-05-20T08:23:50;16.40;;;15.03;;
23682;SDS011;24897;53.514;10.482;2023-05-20T08:26:34;15.93;;;14.73;;
23682;SDS011;24897;53.514;10.482;2023-05-20T08:29:18;15.70;;;14.57;;
23682;SDS011;24897;53.514;10.482;2023-05-20T08:32:03;16.87;;;15.50;;
23682;SDS011;24897;53.514;10.482;2023-05-20T08:34:47;16.43;;;15.13;;
23682;SDS011;24897;53.514;10.482;2023-05-20T08:37:31;15.63;;;14.43;;
23682;SDS011;24897;53.514;10.482;2023-05-20T08:40:15;16.27;;;15.07;;
23682;SDS011;24897;53.514;10.482;2023-05-20T08:43:00;15.30;;;14.00;;
23682;SDS011;24897;53.514;10.482;2023-05-20T08:45:45;16.20;;;14.80;;
23682;SDS011;24897;53.514;10.482;2023-05-20T08:48:29;15.00;;;13.80;;
23682;SDS011;24897;53.514;10.482;2023-05-20T08:51:17;15.13;;;13.93;;
23682;SDS011;24897;53.514;10.482;2023-05-20T08:54:05;15.73;;;14.53;;
23682;SDS011;24897;53.514;10.482;2023-05-20T08:56:51;15.40;;;14.10;;
23682;SDS011;24897;53.514;10.482;2023-05-20T08:59:36;15.10;;;14.00;;
23682;SDS011;24897;53.514;10.482;2023-05-20T09:02:21;15.47;;;14.33;;
23682;SDS011;24897;53.514;10.482;2023-05-20T09:05:06;15.63;;;14.53;;
23682;SDS011;24897;53.514;10.482;2023-05-20T09:08:03;15.57;;;14.37;;
23682;SDS011;24897;53.514;10.482;2023-05-20T09:10:51;16.63;;;15.30;;
23682;SDS011;24897;53.514;10.482;2023-05-20T09:13:36;16.20;;;15.00;;
23682;SDS011;24897;53.514;10.482;2023-05-20T09:16:21;16.73;;;15.33;;
23682;SDS011;24897;53.514;10.482;2023-05-20T09:19:05;16.60;;;14.97;;
23682;SDS011;24897;53.514;10.482;2023-05-20T09:21:51;15.93;;;14.73;;
23682;SDS011;24897;53.514;10.482;2023-05-20T09:24:37;15.67;;;14.53;;
23682;SDS011;24897;53.514;10.482;2023-05-20T09:27:23;15.57;;;14.27;;
23682;SDS011;24897;53.514;10.482;2023-05-20T09:30:07;15.73;;;14.33;;
23682;SDS011;24897;53.514;10.482;2023-05-20T09:32:55;16.00;;;14.80;;
23682;SDS011;24897;53.514;10.482;2023-05-20T09:35:40;16.07;;;14.87;;
23682;SDS011;24897;53.514;10.482;2023-05-20T09:38:24;16.47;;;15.17;;
23682;SDS011;24897;53.514;10.482;2023-05-20T09:41:12;16.33;;;15.00;;
23682;SDS011;24897;53.514;10.482;2023-05-20T09:43:58;16.70;;;15.20;;
23682;SDS011;24897;53.514;10.482;2023-05-20T09:46:42;17.77;;;15.90;;
23682;SDS011;24897;53.514;10.482;2023-05-20T09:49:28;15.90;;;14.70;;
23682;SDS011;24897;53.514;10.482;2023-05-20T09:52:14;16.70;;;15.30;;
23682;SDS011;24897;53.514;10.482;2023-05-20T09:55:00;17.23;;;15.83;;
23682;SDS011;24897;53.514;10.482;2023-05-20T09:57:48;16.87;;;15.47;;
23682;SDS011;24897;53.514;10.482;2023-05-20T10:00:32;16.43;;;15.03;;
23682;SDS011;24897;53.514;10.482;2023-05-20T10:03:17;15.90;;;14.47;;
23682;SDS011;24897;53.514;10.482;2023-05-20T10:06:12;15.87;;;14.67;;
23682;SDS011;24897;53.514;10.482;2023-05-20T10:18:14;16.43;;;15.03;;
23682;SDS011;24897;53.514;10.482;2023-05-20T10:21:24;16.23;;;14.97;;
23682;SDS011;24897;53.514;10.482;2023-05-20T10:24:09;16.60;;;15.27;;
23682;SDS011;24897;53.514;10.482;2023-05-20T10:26:54;17.40;;;15.80;;
23682;SDS011;24897;53.514;10.482;2023-05-20T10:29:41;16.60;;;15.40;;
23682;SDS011;24897;53.514;10.482;2023-05-20T10:32:31;16.93;;;15.63;;
23682;SDS011;24897;53.514;10.482;2023-05-20T10:35:19;17.37;;;15.97;;
23682;SDS011;24897;53.514;10.482;2023-05-20T10:38:06;16.77;;;15.17;;
23682;SDS011;24897;53.514;10.482;2023-05-20T10:40:53;16.60;;;15.20;;
23682;SDS011;24897;53.514;10.482;2023-05-20T10:43:37;17.80;;;16.27;;
23682;SDS011;24897;53.514;10.482;2023-05-20T10:46:21;17.37;;;15.93;;
23682;SDS011;24897;53.514;10.482;2023-05-20T10:49:16;17.27;;;15.83;;
23682;SDS011;24897;53.514;10.482;2023-05-20T10:52:01;17.77;;;16.13;;
23682;SDS011;24897;53.514;10.482;2023-05-20T10:54:55;17.50;;;16.00;;
23682;SDS011;24897;53.514;10.482;2023-05-20T10:57:40;17.70;;;16.20;;
23682;SDS011;24897;53.514;10.482;2023-05-20T11:00:25;16.80;;;15.40;;
23682;SDS011;24897;53.514;10.482;2023-05-20T11:03:09;16.80;;;15.20;;
23682;SDS011;24897;53.514;10.482;2023-05-20T11:05:55;16.63;;;15.23;;
23682;SDS011;24897;53.514;10.482;2023-05-20T11:08:39;16.80;;;15.20;;
23682;SDS011;24897;53.514;10.482;2023-05-20T11:11:24;16.97;;;15.57;;
23682;SDS011;24897;53.514;10.482;2023-05-20T11:14:09;16.60;;;15.20;;
23682;SDS011;24897;53.514;10.482;2023-05-20T11:16:57;16.40;;;15.10;;
23682;SDS011;24897;53.514;10.482;2023-05-20T11:19:42;16.23;;;15.03;;
23682;SDS011;24897;53.514;10.482;2023-05-20T11:22:27;16.50;;;14.90;;
23682;SDS011;24897;53.514;10.482;2023-05-20T11:25:11;17.07;;;15.77;;
23682;SDS011;24897;53.514;10.482;2023-05-20T11:27:55;16.70;;;15.37;;
23682;SDS011;24897;53.514;10.482;2023-05-20T11:30:42;17.20;;;15.63;;
23682;SDS011;24897;53.514;10.482;2023-05-20T11:33:26;17.57;;;15.93;;
23682;SDS011;24897;53.514;10.482;2023-05-20T11:36:12;17.27;;;15.73;;
23682;SDS011;24897;53.514;10.482;2023-05-20T11:38:58;16.07;;;14.80;;
23682;SDS011;24897;53.514;10.482;2023-05-20T11:41:43;16.83;;;15.43;;
23682;SDS011;24897;53.514;10.482;2023-05-20T11:44:27;16.33;;;15.03;;
23682;SDS011;24897;53.514;10.482;2023-05-20T11:47:11;16.50;;;15.20;;
23682;SDS011;24897;53.514;10.482;2023-05-20T11:49:55;16.60;;;15.20;;
23682;SDS011;24897;53.514;10.482;2023-05-20T11:52:39;16.13;;;14.77;;
23682;SDS011;24897;53.514;10.482;2023-05-20T11:55:23;16.20;;;15.00;;
23682;SDS011;24897;53.514;10.482;2023-05-20T11:58:08;16.13;;;14.83;;
23682;SDS011;24897;53.514;10.482;2023-05-20T12:00:52;16.00;;;14.63;;
23682;SDS011;24897;53.514;10.482;2023-05-20T12:03:36;15.67;;;14.40;;
23682;SDS011;24897;53.514;10.482;2023-05-20T12:06:20;15.70;;;14.47;;
23682;SDS011;24897;53.514;10.482;2023-05-20T12:09:05;16.60;;;15.00;;
23682;SDS011;24897;53.514;10.482;2023-05-20T12:12:08;16.60;;;15.20;;
23682;SDS011;24897;53.514;10.482;2023-05-20T12:14:54;17.03;;;15.47;;
23682;SDS011;24897;53.514;10.482;2023-05-20T12:17:45;15.93;;;14.60;;
23682;SDS011;24897;53.514;10.482;2023-05-20T12:20:31;16.50;;;15.30;;
23682;SDS011;24897;53.514;10.482;2023-05-20T12:23:16;16.67;;;15.27;;
23682;SDS011;24897;53.514;10.482;2023-05-20T12:26:01;16.37;;;15.07;;
23682;SDS011;24897;53.514;10.482;2023-05-20T12:28:45;17.00;;;15.50;;
23682;SDS011;24897;53.514;10.482;2023-05-20T12:31:29;18.97;;;17.40;;
23682;SDS011;24897;53.514;10.482;2023-05-20T12:34:14;17.83;;;16.30;;
23682;SDS011;24897;53.514;10.482;2023-05-20T12:36:58;16.90;;;15.47;;
23682;SDS011;24897;53.514;10.482;2023-05-20T12:39:43;17.77;;;16.20;;
23682;SDS011;24897;53.514;10.482;2023-05-20T12:42:27;19.43;;;17.67;;
23682;SDS011;24897;53.514;10.482;2023-05-20T12:45:11;17.57;;;16.17;;
23682;SDS011;24897;53.514;10.482;2023-05-20T12:47:56;16.10;;;14.90;;
23682;SDS011;24897;53.514;10.482;2023-05-20T12:50:40;16.87;;;15.57;;
23682;SDS011;24897;53.514;10.482;2023-05-20T12:53:25;18.60;;;17.00;;
23682;SDS011;24897;53.514;10.482;2023-05-20T12:56:09;18.93;;;16.93;;
23682;SDS011;24897;53.514;10.482;2023-05-20T12:58:54;17.17;;;15.87;;
23682;SDS011;24897;53.514;10.482;2023-05-20T13:01:38;16.90;;;15.60;;
23682;SDS011;24897;53.514;10.482;2023-05-20T13:04:22;16.80;;;15.50;;
23682;SDS011;24897;53.514;10.482;2023-05-20T13:07:07;16.80;;;15.30;;
23682;SDS011;24897;53.514;10.482;2023-05-20T13:09:51;16.23;;;14.93;;
23682;SDS011;24897;53.514;10.482;2023-05-20T13:12:35;15.57;;;14.33;;
23682;SDS011;24897;53.514;10.482;2023-05-20T13:15:20;16.67;;;15.23;;
23682;SDS011;24897;53.514;10.482;2023-05-20T13:18:04;16.77;;;15.07;;
23682;SDS011;24897;53.514;10.482;2023-05-20T13:20:49;16.17;;;14.87;;
23682;SDS011;24897;53.514;10.482;2023-05-20T13:23:33;15.93;;;14.73;;
23682;SDS011;24897;53.514;10.482;2023-05-20T13:26:18;15.20;;;14.10;;
23682;SDS011;24897;53.514;10.482;2023-05-20T13:29:02;16.37;;;15.13;;
23682;SDS011;24897;53.514;10.482;2023-05-20T13:31:46;15.77;;;14.57;;
23682;SDS011;24897;53.514;10.482;2023-05-20T13:34:30;16.03;;;14.80;;
23682;SDS011;24897;53.514;10.482;2023-05-20T13:37:14;16.43;;;15.23;;
23682;SDS011;24897;53.514;10.482;2023-05-20T13:39:59;16.47;;;15.07;;
23682;SDS011;24897;53.514;10.482;2023-05-20T13:42:44;17.00;;;15.60;;
23682;SDS011;24897;53.514;10.482;2023-05-20T13:45:28;16.50;;;15.07;;
23682;SDS011;24897;53.514;10.482;2023-05-20T13:48:12;17.20;;;15.90;;
23682;SDS011;24897;53.514;10.482;2023-05-20T13:50:56;16.17;;;14.83;;
23682;SDS011;24897;53.514;10.482;2023-05-20T13:53:40;15.87;;;14.57;;
23682;SDS011;24897;53.514;10.482;2023-05-20T13:56:24;16.27;;;15.07;;
23682;SDS011;24897;53.514;10.482;2023-05-20T13:59:08;16.73;;;15.33;;
23682;SDS011;24897;53.514;10.482;2023-05-20T14:01:52;18.87;;;17.17;;
23682;SDS011;24897;53.514;10.482;2023-05-20T14:04:36;19.10;;;17.43;;
23682;SDS011;24897;53.514;10.482;2023-05-20T14:07:22;19.30;;;17.50;;
23682;SDS011;24897;53.514;10.482;2023-05-20T14:10:06;18.73;;;17.10;;
23682;SDS011;24897;53.514;10.482;2023-05-20T14:12:52;18.60;;;16.80;;
23682;SDS011;24897;53.514;10.482;2023-05-20T14:15:37;18.57;;;16.77;;
23682;SDS011;24897;53.514;10.482;2023-05-20T14:18:23;19.63;;;17.73;;
23682;SDS011;24897;53.514;10.482;2023-05-20T14:21:07;18.67;;;17.07;;
23682;SDS011;24897;53.514;10.482;2023-05-20T14:23:51;18.60;;;17.00;;
23682;SDS011;24897;53.514;10.482;2023-05-20T14:26:35;19.10;;;17.40;;
23682;SDS011;24897;53.514;10.482;2023-05-20T14:29:19;18.20;;;16.47;;
23682;SDS011;24897;53.514;10.482;2023-05-20T14:32:03;18.37;;;16.77;;
23682;SDS011;24897;53.514;10.482;2023-05-20T14:34:48;19.13;;;17.53;;
23682;SDS011;24897;53.514;10.482;2023-05-20T14:37:32;18.27;;;16.70;;
23682;SDS011;24897;53.514;10.482;2023-05-20T14:40:16;16.80;;;15.50;;
23682;SDS011;24897;53.514;10.482;2023-05-20T14:43:01;17.43;;;15.93;;
23682;SDS011;24897;53.514;10.482;2023-05-20T14:45:45;17.07;;;15.77;;
23682;SDS011;24897;53.514;10.482;2023-05-20T14:48:29;17.50;;;16.03;;
23682;SDS011;24897;53.514;10.482;2023-05-20T14:51:13;18.00;;;16.40;;
23682;SDS011;24897;53.514;10.482;2023-05-20T14:53:58;16.73;;;15.43;;
23682;SDS011;24897;53.514;10.482;2023-05-20T14:56:42;17.40;;;16.00;;
23682;SDS011;24897;53.514;10.482;2023-05-20T14:59:26;17.00;;;15.80;;
23682;SDS011;24897;53.514;10.482;2023-05-20T15:02:10;17.07;;;15.60;;
23682;SDS011;24897;53.514;10.482;2023-05-20T15:04:54;16.30;;;15.10;;
23682;SDS011;24897;53.514;10.482;2023-05-20T15:07:38;17.93;;;16.00;;
23682;SDS011;24897;53.514;10.482;2023-05-20T15:10:23;18.23;;;16.73;;
23682;SDS011;24897;53.514;10.482;2023-05-20T15:13:07;17.63;;;16.13;;
23682;SDS011;24897;53.514;10.482;2023-05-20T15:15:51;17.60;;;16.10;;
23682;SDS011;24897;53.514;10.482;2023-05-20T15:18:36;17.57;;;16.07;;
23682;SDS011;24897;53.514;10.482;2023-05-20T15:21:20;17.87;;;16.47;;
23682;SDS011;24897;53.514;10.482;2023-05-20T15:24:04;19.13;;;17.43;;
23682;SDS011;24897;53.514;10.482;2023-05-20T15:26:49;18.90;;;17.30;;
23682;SDS011;24897;53.514;10.482;2023-05-20T15:29:34;17.83;;;16.43;;
23682;SDS011;24897;53.514;10.482;2023-05-20T15:32:18;18.23;;;16.53;;
23682;SDS011;24897;53.514;10.482;2023-05-20T15:35:03;17.77;;;16.27;;
23682;SDS011;24897;53.514;10.482;2023-05-20T15:37:47;18.63;;;17.03;;
23682;SDS011;24897;53.514;10.482;2023-05-20T15:40:31;18.13;;;16.57;;
23682;SDS011;24897;53.514;10.482;2023-05-20T15:43:16;16.87;;;15.57;;
23682;SDS011;24897;53.514;10.482;2023-05-20T15:46:01;17.03;;;15.63;;
23682;SDS011;24897;53.514;10.482;2023-05-20T15:48:45;17.00;;;15.40;;
23682;SDS011;24897;53.514;10.482;2023-05-20T15:51:30;18.00;;;16.70;;
23682;SDS011;24897;53.514;10.482;2023-05-20T15:54:14;17.83;;;16.53;;
23682;SDS011;24897;53.514;10.482;2023-05-20T15:56:58;18.13;;;16.50;;
23682;SDS011;24897;53.514;10.482;2023-05-20T15:59:43;18.00;;;16.30;;